TAF Text Data
IDs:
Format:
Raw Decoded Include METAR

Data at: 2328 UTC 26 Feb 2020

LFRD 262300Z AUTO 21010KT 9999 FEW040 OVC066 06/03 Q1010 BECMG 17020G35KT RA

TAF LFRD 262300Z 2700/2724 19010KT 5000 RADZ BKN025
  BECMG 2700/2702 20015G25KT BKN012
  TEMPO 2702/2705 3000 RA BKN005
  BECMG 2705/2707 27020G35KT 9999 NSW
  TEMPO 2707/2710 28025G45KT
  TEMPO 2707/2712 4000 SHRA BKN012
  BECMG 2709/2711 33020G35KT
  BECMG 2715/2717 32012KT
  BECMG 2719/2721 VRB05KT


LFRN 262300Z AUTO 17007KT 9999 SCT049 BKN064 BKN074 06/03 Q1011 BECMG 17015G25KT RA

TAF LFRN 262300Z 2700/2724 18010KT 5000 RADZ BKN025
  BECMG 2700/2703 18015G25KT BKN012
  TEMPO 2703/2706 3000 RA BKN005
  BECMG 2706/2708 27018G35KT 9999 NSW BKN020
  TEMPO 2708/2712 4000 SHRA BKN012
  PROB40
  TEMPO 2708/2711 28025G45KT
  BECMG 2710/2712 32018G30KT
  BECMG 2715/2717 32010KT
  BECMG 2718/2720 VRB05KT


LFRS 262300Z AUTO 19004KT 9999 FEW040/// SCT046/// BKN064/// ///TCU 07/05 Q1013 BECMG BKN012

TAF LFRS 262300Z 2700/2806 19010KT 9999 BKN030
  BECMG 2700/2702 -RA BKN012
  BECMG 2704/2706 25020G32KT
  TEMPO 2702/2707 3000 RA OVC004
  BECMG 2707/2709 NSW BKN018
  TEMPO 2708/2711 26025G42KT
  BECMG 2711/2713 32018G35KT SCT025
  BECMG 2715/2717 33008KT
  BECMG 2802/2803 17010KT
  BECMG 2803/2806 4000 -RA BKN015


LFRV 262300Z AUTO 20005KT 9999 -RADZ FEW018/// SCT034/// BKN047/// ///TCU 07/06 Q1010


LFOV 262300Z AUTO 20007KT CAVOK 05/03 Q1012


LFRO 262300Z AUTO 16008KT 9999 -RA BKN033 OVC044 06/04 Q1009


LFRH 262300Z AUTO 20009KT 8000 -RA FEW013/// SCT018/// BKN027/// ///TCU 08/07 Q1010 BECMG 4900 RA BKN010 OVC014

TAF LFRH 262300Z 2700/2724 19012KT 4900 RA BKN010 BKN015
  BECMG 2702/2704 22015G30KT 2500 RADZ BKN003 OVC006
  BECMG 2706/2709 27020G38KT 9999 NSW BKN020
  BECMG 2711/2713 31015G28KT
  BECMG 2714/2716 33012KT


LFJR 262300Z AUTO 17004KT CAVOK 05/02 Q1013


LFRC 262300Z AUTO 21010KT 9999 SCT016 BKN022 BKN030 05/03 Q1008

TAF LFRC 261400Z 2615/2624 30020G30KT 9999 BKN030
  BECMG 2616/2618 28010KT
  BECMG 2620/2622 24010KT
  BECMG 2622/2624 5000 RA


LFRK 262300Z AUTO 18005KT 9999 FEW040 SCT054 BKN068 04/03 Q1010

TAF LFRK 261400Z 2615/2624 30020G30KT 9999 BKN030
  BECMG 2616/2618 30010KT
  BECMG 2622/2624 21010KT